sensor_id;sensor_type;location;lat;lon;timestamp;pressure;altitude;pressure_sealevel;temperature;humidity
36692;BME280;22678;52.052;4.242;2023-01-19T00:01:18;100090.22;;;4.52;85.40
36692;BME280;22678;52.052;4.242;2023-01-19T00:03:44;100080.69;;;4.48;87.10
36692;BME280;22678;52.052;4.242;2023-01-19T00:06:10;100080.59;;;4.35;88.18
36692;BME280;22678;52.052;4.242;2023-01-19T00:08:36;100077.16;;;4.39;88.68
36692;BME280;22678;52.052;4.242;2023-01-19T00:11:02;100084.03;;;4.28;89.09
36692;BME280;22678;52.052;4.242;2023-01-19T00:13:27;100097.94;;;4.30;89.51
36692;BME280;22678;52.052;4.242;2023-01-19T00:15:53;100096.16;;;4.23;89.84
36692;BME280;22678;52.052;4.242;2023-01-19T00:18:18;100090.03;;;4.16;90.16
36692;BME280;22678;52.052;4.242;2023-01-19T00:20:45;100113.47;;;4.21;90.21
36692;BME280;22678;52.052;4.242;2023-01-19T00:23:11;100105.66;;;4.18;90.66
36692;BME280;22678;52.052;4.242;2023-01-19T00:25:37;100099.56;;;4.10;90.92
36692;BME280;22678;52.052;4.242;2023-01-19T00:28:10;100100.41;;;4.09;90.96
36692;BME280;22678;52.052;4.242;2023-01-19T00:30:37;100104.75;;;4.10;91.11
36692;BME280;22678;52.052;4.242;2023-01-19T00:33:02;100116.06;;;4.15;91.37
36692;BME280;22678;52.052;4.242;2023-01-19T00:35:28;100119.53;;;4.14;91.52
36692;BME280;22678;52.052;4.242;2023-01-19T00:37:55;100108.25;;;4.13;92.12
36692;BME280;22678;52.052;4.242;2023-01-19T00:40:20;100101.28;;;4.11;92.22
36692;BME280;22678;52.052;4.242;2023-01-19T00:42:46;100114.25;;;4.08;92.77
36692;BME280;22678;52.052;4.242;2023-01-19T00:45:15;100128.22;;;4.16;93.01
36692;BME280;22678;52.052;4.242;2023-01-19T00:47:41;100129.03;;;4.12;92.68
36692;BME280;22678;52.052;4.242;2023-01-19T00:50:07;100131.63;;;4.09;92.70
36692;BME280;22678;52.052;4.242;2023-01-19T00:52:36;100146.31;;;4.00;92.86
36692;BME280;22678;52.052;4.242;2023-01-19T00:55:01;100145.44;;;4.00;92.71
36692;BME280;22678;52.052;4.242;2023-01-19T00:57:26;100148.91;;;4.00;92.72
36692;BME280;22678;52.052;4.242;2023-01-19T00:59:53;100135.84;;;3.94;92.69
36692;BME280;22678;52.052;4.242;2023-01-19T01:02:19;100125.38;;;3.82;92.63
36692;BME280;22678;52.052;4.242;2023-01-19T01:04:44;100150.59;;;3.91;93.22
36692;BME280;22678;52.052;4.242;2023-01-19T01:07:09;100155.81;;;3.94;93.35
36692;BME280;22678;52.052;4.242;2023-01-19T01:09:35;100150.53;;;3.84;93.00
36692;BME280;22678;52.052;4.242;2023-01-19T01:12:00;100153.06;;;3.77;93.49
36692;BME280;22678;52.052;4.242;2023-01-19T01:14:25;100158.28;;;3.78;93.43
36692;BME280;22678;52.052;4.242;2023-01-19T01:16:51;100166.91;;;3.73;93.64
36692;BME280;22678;52.052;4.242;2023-01-19T01:19:16;100168.72;;;3.80;93.77
36692;BME280;22678;52.052;4.242;2023-01-19T01:21:41;100173.88;;;3.77;93.91
36692;BME280;22678;52.052;4.242;2023-01-19T01:24:08;100173.88;;;3.77;93.84
36692;BME280;22678;52.052;4.242;2023-01-19T01:26:33;100164.31;;;3.74;93.66
36692;BME280;22678;52.052;4.242;2023-01-19T01:28:58;100170.41;;;3.76;93.75
36692;BME280;22678;52.052;4.242;2023-01-19T01:31:24;100166.00;;;3.71;93.65
36692;BME280;22678;52.052;4.242;2023-01-19T01:33:50;100165.97;;;3.66;93.55
36692;BME280;22678;52.052;4.242;2023-01-19T01:36:15;100184.25;;;3.74;93.61
36692;BME280;22678;52.052;4.242;2023-01-19T01:38:41;100179.84;;;3.68;93.65
36692;BME280;22678;52.052;4.242;2023-01-19T01:41:06;100194.63;;;3.71;94.04
36692;BME280;22678;52.052;4.242;2023-01-19T01:43:48;100186.88;;;3.78;94.55
36692;BME280;22678;52.052;4.242;2023-01-19T01:46:16;100196.41;;;3.78;94.50
36692;BME280;22678;52.052;4.242;2023-01-19T01:48:44;100182.53;;;3.73;94.20
36692;BME280;22678;52.052;4.242;2023-01-19T01:51:41;100188.59;;;3.76;94.57
36692;BME280;22678;52.052;4.242;2023-01-19T01:54:15;100192.94;;;3.74;94.80
36692;BME280;22678;52.052;4.242;2023-01-19T01:56:45;100204.22;;;3.76;94.45
36692;BME280;22678;52.052;4.242;2023-01-19T01:59:19;100218.97;;;3.76;94.90
36692;BME280;22678;52.052;4.242;2023-01-19T02:01:55;100213.72;;;3.73;94.91
36692;BME280;22678;52.052;4.242;2023-01-19T02:04:44;100212.00;;;3.75;94.76
36692;BME280;22678;52.052;4.242;2023-01-19T02:07:14;100205.03;;;3.71;95.21
36692;BME280;22678;52.052;4.242;2023-01-19T02:10:00;100206.78;;;3.75;95.25
36692;BME280;22678;52.052;4.242;2023-01-19T02:12:45;100229.34;;;3.73;95.36
36692;BME280;22678;52.052;4.242;2023-01-19T02:15:29;100230.19;;;3.73;95.70
36692;BME280;22678;52.052;4.242;2023-01-19T02:17:54;100232.84;;;3.78;95.57
36692;BME280;22678;52.052;4.242;2023-01-19T02:20:25;100222.38;;;3.72;95.33
36692;BME280;22678;52.052;4.242;2023-01-19T02:22:54;100217.19;;;3.72;95.26
36692;BME280;22678;52.052;4.242;2023-01-19T02:25:22;100210.19;;;3.67;95.33
36692;BME280;22678;52.052;4.242;2023-01-19T02:27:49;100212.75;;;3.61;95.21
36692;BME280;22678;52.052;4.242;2023-01-19T02:30:16;100225.78;;;3.67;95.19
36692;BME280;22678;52.052;4.242;2023-01-19T02:32:42;100221.34;;;3.56;95.24
36692;BME280;22678;52.052;4.242;2023-01-19T02:35:08;100250.00;;;3.63;95.18
36692;BME280;22678;52.052;4.242;2023-01-19T02:37:36;100240.41;;;3.56;95.03
36692;BME280;22678;52.052;4.242;2023-01-19T02:40:10;100243.91;;;3.58;94.82
36692;BME280;22678;52.052;4.242;2023-01-19T02:42:41;100249.16;;;3.63;94.85
36692;BME280;22678;52.052;4.242;2023-01-19T02:45:08;100215.28;;;3.55;95.11
36692;BME280;22678;52.052;4.242;2023-01-19T02:47:37;100217.94;;;3.63;94.84
36692;BME280;22678;52.052;4.242;2023-01-19T02:50:04;100212.78;;;3.64;95.23
36692;BME280;22678;52.052;4.242;2023-01-19T02:52:50;100212.78;;;3.66;94.75
36692;BME280;22678;52.052;4.242;2023-01-19T02:55:21;100184.13;;;3.58;95.09
36692;BME280;22678;52.052;4.242;2023-01-19T02:58:10;100198.13;;;3.73;95.45
36692;BME280;22678;52.052;4.242;2023-01-19T03:00:52;100201.66;;;3.84;96.06
36692;BME280;22678;52.052;4.242;2023-01-19T03:03:31;100197.44;;;3.94;96.34
36692;BME280;22678;52.052;4.242;2023-01-19T03:06:09;100182.66;;;3.91;97.23
36692;BME280;22678;52.052;4.242;2023-01-19T03:08:54;100201.03;;;4.08;97.58
36692;BME280;22678;52.052;4.242;2023-01-19T03:11:24;100191.47;;;4.06;97.32
36692;BME280;22678;52.052;4.242;2023-01-19T03:13:55;100210.63;;;4.17;97.25
36692;BME280;22678;52.052;4.242;2023-01-19T03:16:36;100208.03;;;4.18;97.13
36692;BME280;22678;52.052;4.242;2023-01-19T03:19:08;100204.53;;;4.15;97.44
36692;BME280;22678;52.052;4.242;2023-01-19T03:21:37;100235.88;;;4.26;97.14
36692;BME280;22678;52.052;4.242;2023-01-19T03:24:05;100221.09;;;4.26;96.41
36692;BME280;22678;52.052;4.242;2023-01-19T03:26:36;100215.88;;;4.23;96.14
36692;BME280;22678;52.052;4.242;2023-01-19T03:29:04;100222.78;;;4.21;96.13
36692;BME280;22678;52.052;4.242;2023-01-19T03:31:31;100225.47;;;4.26;95.76
36692;BME280;22678;52.052;4.242;2023-01-19T03:34:05;100233.28;;;4.27;95.96
36692;BME280;22678;52.052;4.242;2023-01-19T03:36:43;100247.16;;;4.29;96.13
36692;BME280;22678;52.052;4.242;2023-01-19T03:39:10;100235.00;;;4.28;95.78
36692;BME280;22678;52.052;4.242;2023-01-19T03:41:40;100235.06;;;4.34;95.98
36692;BME280;22678;52.052;4.242;2023-01-19T03:44:07;100244.56;;;4.32;95.71
36692;BME280;22678;52.052;4.242;2023-01-19T03:46:33;100257.63;;;4.35;95.57
36692;BME280;22678;52.052;4.242;2023-01-19T03:48:59;100271.53;;;4.37;95.61
36692;BME280;22678;52.052;4.242;2023-01-19T03:51:25;100267.19;;;4.36;95.46
36692;BME280;22678;52.052;4.242;2023-01-19T03:53:50;100268.03;;;4.35;94.94
36692;BME280;22678;52.052;4.242;2023-01-19T03:56:22;100259.28;;;4.24;95.20
36692;BME280;22678;52.052;4.242;2023-01-19T03:58:48;100267.91;;;4.20;94.63
36692;BME280;22678;52.052;4.242;2023-01-19T04:01:14;100269.63;;;4.18;94.67
36692;BME280;22678;52.052;4.242;2023-01-19T04:03:40;100264.34;;;4.12;94.46
36692;BME280;22678;52.052;4.242;2023-01-19T04:06:07;100268.69;;;4.10;94.47
36692;BME280;22678;52.052;4.242;2023-01-19T04:08:32;100259.97;;;4.08;94.45
36692;BME280;22678;52.052;4.242;2023-01-19T04:10:58;100259.97;;;4.04;94.77
36692;BME280;22678;52.052;4.242;2023-01-19T04:13:23;100267.88;;;4.17;94.76
36692;BME280;22678;52.052;4.242;2023-01-19T04:15:51;100281.81;;;4.22;94.88
36692;BME280;22678;52.052;4.242;2023-01-19T04:18:16;100268.78;;;4.20;94.63
36692;BME280;22678;52.052;4.242;2023-01-19T04:20:41;100264.44;;;4.21;95.06
36692;BME280;22678;52.052;4.242;2023-01-19T04:23:06;100271.41;;;4.25;94.89
36692;BME280;22678;52.052;4.242;2023-01-19T04:25:32;100267.09;;;4.24;94.90
36692;BME280;22678;52.052;4.242;2023-01-19T04:27:57;100276.66;;;4.30;94.63
36692;BME280;22678;52.052;4.242;2023-01-19T04:30:23;100262.75;;;4.26;94.99
36692;BME280;22678;52.052;4.242;2023-01-19T04:32:48;100267.13;;;4.29;94.75
36692;BME280;22678;52.052;4.242;2023-01-19T04:35:14;100271.50;;;4.34;94.81
36692;BME280;22678;52.052;4.242;2023-01-19T04:37:41;100277.56;;;4.32;94.68
36692;BME280;22678;52.052;4.242;2023-01-19T04:40:07;100279.25;;;4.31;94.72
36692;BME280;22678;52.052;4.242;2023-01-19T04:42:32;100267.97;;;4.26;94.66
36692;BME280;22678;52.052;4.242;2023-01-19T04:44:57;100274.06;;;4.31;94.32
36692;BME280;22678;52.052;4.242;2023-01-19T04:47:23;100282.78;;;4.35;94.28
36692;BME280;22678;52.052;4.242;2023-01-19T04:49:48;100280.97;;;4.28;94.29
36692;BME280;22678;52.052;4.242;2023-01-19T04:52:13;100280.16;;;4.30;93.80
36692;BME280;22678;52.052;4.242;2023-01-19T04:54:38;100289.66;;;4.30;93.63
36692;BME280;22678;52.052;4.242;2023-01-19T04:57:04;100281.88;;;4.31;92.83
36692;BME280;22678;52.052;4.242;2023-01-19T04:59:29;100294.00;;;4.29;92.23
36692;BME280;22678;52.052;4.242;2023-01-19T05:01:54;100285.31;;;4.24;91.77
36692;BME280;22678;52.052;4.242;2023-01-19T05:04:21;100292.25;;;4.28;91.20
36692;BME280;22678;52.052;4.242;2023-01-19T05:06:47;100292.22;;;4.25;90.80
36692;BME280;22678;52.052;4.242;2023-01-19T05:09:12;100302.69;;;4.30;90.46
36692;BME280;22678;52.052;4.242;2023-01-19T05:11:39;100294.00;;;4.29;90.18
36692;BME280;22678;52.052;4.242;2023-01-19T05:14:05;100313.09;;;4.31;89.70
36692;BME280;22678;52.052;4.242;2023-01-19T05:16:30;100300.94;;;4.27;89.25
36692;BME280;22678;52.052;4.242;2023-01-19T05:18:56;100307.06;;;4.32;88.91
36692;BME280;22678;52.052;4.242;2023-01-19T05:21:21;100292.22;;;4.22;87.67
36692;BME280;22678;52.052;4.242;2023-01-19T05:23:46;100304.44;;;4.32;87.62
36692;BME280;22678;52.052;4.242;2023-01-19T05:26:12;100303.56;;;4.27;87.31
36692;BME280;22678;52.052;4.242;2023-01-19T05:28:37;100297.38;;;4.17;86.79
36692;BME280;22678;52.052;4.242;2023-01-19T05:31:03;100299.13;;;4.17;86.36
36692;BME280;22678;52.052;4.242;2023-01-19T05:33:28;100313.94;;;4.24;86.47
36692;BME280;22678;52.052;4.242;2023-01-19T05:35:54;100303.47;;;4.19;85.95
36692;BME280;22678;52.052;4.242;2023-01-19T05:38:20;100321.75;;;4.24;85.75
36692;BME280;22678;52.052;4.242;2023-01-19T05:40:46;100323.44;;;4.22;85.27
36692;BME280;22678;52.052;4.242;2023-01-19T05:43:12;100316.44;;;4.15;85.19
36692;BME280;22678;52.052;4.242;2023-01-19T05:45:38;100326.91;;;4.21;84.73
36692;BME280;22678;52.052;4.242;2023-01-19T05:48:04;100330.34;;;4.17;85.17
36692;BME280;22678;52.052;4.242;2023-01-19T05:50:30;100325.13;;;4.15;85.10
36692;BME280;22678;52.052;4.242;2023-01-19T05:52:56;100326.81;;;4.13;85.74
36692;BME280;22678;52.052;4.242;2023-01-19T05:55:22;100328.56;;;4.13;85.33
36692;BME280;22678;52.052;4.242;2023-01-19T05:57:48;100356.44;;;4.23;85.63
36692;BME280;22678;52.052;4.242;2023-01-19T06:00:13;100338.97;;;4.13;85.63
36692;BME280;22678;52.052;4.242;2023-01-19T06:02:39;100340.72;;;4.12;85.65
36692;BME280;22678;52.052;4.242;2023-01-19T06:05:04;100340.72;;;4.12;85.78
36692;BME280;22678;52.052;4.242;2023-01-19T06:07:30;100324.03;;;3.93;85.62
36692;BME280;22678;52.052;4.242;2023-01-19T06:09:56;100336.28;;;4.02;86.07
36692;BME280;22678;52.052;4.242;2023-01-19T06:12:22;100349.31;;;4.03;86.07
36692;BME280;22678;52.052;4.242;2023-01-19T06:14:47;100344.00;;;3.97;86.37
36692;BME280;22678;52.052;4.242;2023-01-19T06:17:13;100352.69;;;3.96;86.70
36692;BME280;22678;52.052;4.242;2023-01-19T06:19:38;100362.25;;;4.00;86.78
36692;BME280;22678;52.052;4.242;2023-01-19T06:22:03;100345.78;;;4.01;87.04
36692;BME280;22678;52.052;4.242;2023-01-19T06:24:28;100348.38;;;4.00;87.17
36692;BME280;22678;52.052;4.242;2023-01-19T06:26:54;100353.63;;;4.04;87.21
36692;BME280;22678;52.052;4.242;2023-01-19T06:29:20;100363.28;;;4.15;87.51
36692;BME280;22678;52.052;4.242;2023-01-19T06:31:46;100368.44;;;4.12;87.23
36692;BME280;22678;52.052;4.242;2023-01-19T06:34:11;100378.91;;;4.18;87.64
36692;BME280;22678;52.052;4.242;2023-01-19T06:36:37;100376.34;;;4.19;87.21
36692;BME280;22678;52.052;4.242;2023-01-19T06:39:03;100385.91;;;4.22;87.06
36692;BME280;22678;52.052;4.242;2023-01-19T06:41:31;100385.84;;;4.16;86.23
36692;BME280;22678;52.052;4.242;2023-01-19T06:43:57;100389.41;;;4.24;86.29
36692;BME280;22678;52.052;4.242;2023-01-19T06:46:22;100345.69;;;3.92;86.08
36692;BME280;22678;52.052;4.242;2023-01-19T06:48:47;100384.09;;;4.15;86.02
36692;BME280;22678;52.052;4.242;2023-01-19T06:51:13;100412.78;;;4.21;85.77
36692;BME280;22678;52.052;4.242;2023-01-19T06:53:38;100403.25;;;4.20;85.52
36692;BME280;22678;52.052;4.242;2023-01-19T06:56:03;100404.09;;;4.17;85.37
36692;BME280;22678;52.052;4.242;2023-01-19T06:58:30;100410.16;;;4.19;84.85
36692;BME280;22678;52.052;4.242;2023-01-19T07:01:03;100424.91;;;4.17;84.25
36692;BME280;22678;52.052;4.242;2023-01-19T07:03:29;100417.88;;;4.10;84.25
36692;BME280;22678;52.052;4.242;2023-01-19T07:05:55;100410.91;;;4.08;83.49
36692;BME280;22678;52.052;4.242;2023-01-19T07:08:21;100424.00;;;4.14;83.34
36692;BME280;22678;52.052;4.242;2023-01-19T07:10:47;100425.69;;;4.12;82.97
36692;BME280;22678;52.052;4.242;2023-01-19T07:13:12;100441.34;;;4.15;82.59
36692;BME280;22678;52.052;4.242;2023-01-19T07:15:37;100438.72;;;4.12;82.39
36692;BME280;22678;52.052;4.242;2023-01-19T07:18:03;100439.66;;;4.17;82.50
36692;BME280;22678;52.052;4.242;2023-01-19T07:20:32;100444.91;;;4.20;82.59
36692;BME280;22678;52.052;4.242;2023-01-19T07:22:58;100443.97;;;4.16;82.63
36692;BME280;22678;52.052;4.242;2023-01-19T07:25:23;100454.44;;;4.21;82.08
36692;BME280;22678;52.052;4.242;2023-01-19T07:27:49;100463.16;;;4.25;81.50
36692;BME280;22678;52.052;4.242;2023-01-19T07:30:14;100465.72;;;4.20;81.38
36692;BME280;22678;52.052;4.242;2023-01-19T07:32:42;100465.69;;;4.17;80.72
36692;BME280;22678;52.052;4.242;2023-01-19T07:35:08;100461.25;;;4.08;80.67
36692;BME280;22678;52.052;4.242;2023-01-19T07:37:34;100476.97;;;4.19;81.26
36692;BME280;22678;52.052;4.242;2023-01-19T07:40:00;100467.41;;;4.18;81.07
36692;BME280;22678;52.052;4.242;2023-01-19T07:42:25;100470.00;;;4.16;81.49
36692;BME280;22678;52.052;4.242;2023-01-19T07:44:50;100479.63;;;4.25;81.44
36692;BME280;22678;52.052;4.242;2023-01-19T07:47:16;100466.59;;;4.24;81.39
36692;BME280;22678;52.052;4.242;2023-01-19T07:49:41;100480.53;;;4.26;81.28
36692;BME280;22678;52.052;4.242;2023-01-19T07:52:07;100486.56;;;4.23;80.63
36692;BME280;22678;52.052;4.242;2023-01-19T07:54:32;100483.94;;;4.21;80.10
36692;BME280;22678;52.052;4.242;2023-01-19T07:56:58;100491.72;;;4.18;79.52
36692;BME280;22678;52.052;4.242;2023-01-19T07:59:25;100491.66;;;4.12;79.35
36692;BME280;22678;52.052;4.242;2023-01-19T08:01:50;100502.09;;;4.15;79.13
36692;BME280;22678;52.052;4.242;2023-01-19T08:04:18;100494.19;;;4.09;78.42
36692;BME280;22678;52.052;4.242;2023-01-19T08:06:44;100496.75;;;4.04;77.83
36692;BME280;22678;52.052;4.242;2023-01-19T08:09:11;100502.91;;;4.10;77.27
36692;BME280;22678;52.052;4.242;2023-01-19T08:11:37;100513.25;;;4.07;76.95
36692;BME280;22678;52.052;4.242;2023-01-19T08:14:03;100515.00;;;4.08;77.14
36692;BME280;22678;52.052;4.242;2023-01-19T08:16:28;100529.75;;;4.09;76.83
36692;BME280;22678;52.052;4.242;2023-01-19T08:18:53;100519.28;;;4.04;76.19
36692;BME280;22678;52.052;4.242;2023-01-19T08:21:19;100528.03;;;4.11;75.68
36692;BME280;22678;52.052;4.242;2023-01-19T08:23:55;100532.38;;;4.09;75.48
36692;BME280;22678;52.052;4.242;2023-01-19T08:26:32;100535.81;;;4.08;75.29
36692;BME280;22678;52.052;4.242;2023-01-19T08:29:01;100529.72;;;4.06;75.46
36692;BME280;22678;52.052;4.242;2023-01-19T08:31:27;100539.34;;;4.11;75.19
36692;BME280;22678;52.052;4.242;2023-01-19T08:33:52;100530.53;;;4.03;75.24
36692;BME280;22678;52.052;4.242;2023-01-19T08:36:18;100548.94;;;4.14;75.54
36692;BME280;22678;52.052;4.242;2023-01-19T08:38:44;100550.69;;;4.18;75.14
36692;BME280;22678;52.052;4.242;2023-01-19T08:41:11;100562.06;;;4.23;74.69
36692;BME280;22678;52.052;4.242;2023-01-19T08:43:36;100526.34;;;4.11;74.62
36692;BME280;22678;52.052;4.242;2023-01-19T08:46:04;100538.59;;;4.20;74.77
36692;BME280;22678;52.052;4.242;2023-01-19T08:48:30;100559.59;;;4.35;74.59
36692;BME280;22678;52.052;4.242;2023-01-19T08:50:56;100548.34;;;4.36;74.37
36692;BME280;22678;52.052;4.242;2023-01-19T08:53:21;100550.06;;;4.34;74.55
36692;BME280;22678;52.052;4.242;2023-01-19T08:55:54;100550.03;;;4.33;74.05
36692;BME280;22678;52.052;4.242;2023-01-19T08:58:21;100549.06;;;4.26;73.68
36692;BME280;22678;52.052;4.242;2023-01-19T09:00:47;100556.97;;;4.32;73.29
36692;BME280;22678;52.052;4.242;2023-01-19T09:03:13;100555.28;;;4.36;72.40
36692;BME280;22678;52.052;4.242;2023-01-19T09:05:39;100559.63;;;4.38;72.37
36692;BME280;22678;52.052;4.242;2023-01-19T09:08:12;100564.84;;;4.38;71.54
36692;BME280;22678;52.052;4.242;2023-01-19T09:10:43;100562.19;;;4.34;71.36
36692;BME280;22678;52.052;4.242;2023-01-19T09:13:10;100570.97;;;4.41;71.21
36692;BME280;22678;52.052;4.242;2023-01-19T09:15:39;100574.44;;;4.43;70.19
36692;BME280;22678;52.052;4.242;2023-01-19T09:18:12;100554.28;;;4.26;69.72
36692;BME280;22678;52.052;4.242;2023-01-19T09:20:41;100583.16;;;4.45;68.66
36692;BME280;22678;52.052;4.242;2023-01-19T09:23:10;100586.66;;;4.48;67.81
36692;BME280;22678;52.052;4.242;2023-01-19T09:25:38;100585.00;;;4.53;67.88
36692;BME280;22678;52.052;4.242;2023-01-19T09:28:04;100584.16;;;4.56;68.07
36692;BME280;22678;52.052;4.242;2023-01-19T09:30:30;100592.94;;;4.64;67.64
36692;BME280;22678;52.052;4.242;2023-01-19T09:33:01;100586.97;;;4.71;67.44
36692;BME280;22678;52.052;4.242;2023-01-19T09:35:31;100586.28;;;4.88;67.07
36692;BME280;22678;52.052;4.242;2023-01-19T09:37:56;100595.00;;;4.93;66.61
36692;BME280;22678;52.052;4.242;2023-01-19T09:40:23;100598.56;;;5.01;66.16
36692;BME280;22678;52.052;4.242;2023-01-19T09:45:34;100595.41;;;5.33;65.32
36692;BME280;22678;52.052;4.242;2023-01-19T09:48:20;100597.53;;;5.81;64.48
36692;BME280;22678;52.052;4.242;2023-01-19T09:50:48;100601.38;;;6.29;63.67
36692;BME280;22678;52.052;4.242;2023-01-19T09:53:32;100606.75;;;6.60;62.11
36692;BME280;22678;52.052;4.242;2023-01-19T09:55:58;100588.50;;;6.78;60.69
36692;BME280;22678;52.052;4.242;2023-01-19T09:58:23;100610.31;;;6.77;60.26
36692;BME280;22678;52.052;4.242;2023-01-19T10:01:21;100614.56;;;6.55;61.02
36692;BME280;22678;52.052;4.242;2023-01-19T10:03:53;100566.28;;;5.90;61.46
36692;BME280;22678;52.052;4.242;2023-01-19T10:06:23;100622.13;;;6.10;60.95
36692;BME280;22678;52.052;4.242;2023-01-19T10:08:59;100617.75;;;6.06;61.01
36692;BME280;22678;52.052;4.242;2023-01-19T10:11:48;100620.56;;;6.40;60.22
36692;BME280;22678;52.052;4.242;2023-01-19T10:14:22;100626.75;;;6.59;58.22
36692;BME280;22678;52.052;4.242;2023-01-19T10:16:54;100633.69;;;6.49;58.55
36692;BME280;22678;52.052;4.242;2023-01-19T10:19:28;100627.53;;;6.41;59.42
36692;BME280;22678;52.052;4.242;2023-01-19T10:21:57;100621.38;;;6.30;59.29
36692;BME280;22678;52.052;4.242;2023-01-19T10:24:41;100627.50;;;6.35;58.87
36692;BME280;22678;52.052;4.242;2023-01-19T10:27:14;100594.38;;;6.25;58.21
36692;BME280;22678;52.052;4.242;2023-01-19T10:29:40;100629.25;;;6.33;58.11
36692;BME280;22678;52.052;4.242;2023-01-19T10:32:11;100631.00;;;6.37;58.33
36692;BME280;22678;52.052;4.242;2023-01-19T10:34:38;100636.22;;;6.39;58.89
36692;BME280;22678;52.052;4.242;2023-01-19T10:37:17;100632.78;;;6.44;58.49
36692;BME280;22678;52.052;4.242;2023-01-19T10:39:55;100632.72;;;6.30;58.22
36692;BME280;22678;52.052;4.242;2023-01-19T10:42:21;100637.91;;;6.23;58.79
36692;BME280;22678;52.052;4.242;2023-01-19T10:44:48;100621.28;;;6.10;59.27
36692;BME280;22678;52.052;4.242;2023-01-19T10:47:19;100636.09;;;6.12;59.09
36692;BME280;22678;52.052;4.242;2023-01-19T10:49:45;100638.53;;;5.95;59.18
36692;BME280;22678;52.052;4.242;2023-01-19T10:52:19;100644.56;;;5.87;58.89
36692;BME280;22678;52.052;4.242;2023-01-19T10:54:46;100628.91;;;5.88;58.72
36692;BME280;22678;52.052;4.242;2023-01-19T10:57:40;100628.88;;;5.85;58.85
36692;BME280;22678;52.052;4.242;2023-01-19T11:00:37;100636.66;;;5.74;59.13
36692;BME280;22678;52.052;4.242;2023-01-19T11:05:47;100640.09;;;5.70;58.98
36692;BME280;22678;52.052;4.242;2023-01-19T11:08:27;100625.16;;;5.54;59.36
36692;BME280;22678;52.052;4.242;2023-01-19T11:10:58;100633.78;;;5.47;59.46
36692;BME280;22678;52.052;4.242;2023-01-19T11:13:23;100642.47;;;5.46;59.00
36692;BME280;22678;52.052;4.242;2023-01-19T11:15:52;100634.69;;;5.53;58.83
36692;BME280;22678;52.052;4.242;2023-01-19T11:20:57;100627.22;;;5.95;58.21
36692;BME280;22678;52.052;4.242;2023-01-19T11:23:34;100631.72;;;6.08;56.98
36692;BME280;22678;52.052;4.242;2023-01-19T11:26:06;100642.28;;;6.30;56.54
36692;BME280;22678;52.052;4.242;2023-01-19T11:28:42;100628.38;;;6.36;56.54
36692;BME280;22678;52.052;4.242;2023-01-19T11:33:56;100636.22;;;6.40;55.38
36692;BME280;22678;52.052;4.242;2023-01-19T11:36:28;100629.28;;;6.36;55.14
36692;BME280;22678;52.052;4.242;2023-01-19T11:38:59;100625.72;;;6.28;55.62
36692;BME280;22678;52.052;4.242;2023-01-19T11:41:30;100636.19;;;6.28;56.46
36692;BME280;22678;52.052;4.242;2023-01-19T11:44:21;100631.72;;;6.08;56.98
36692;BME280;22678;52.052;4.242;2023-01-19T11:46:50;100644.75;;;6.05;57.23
36692;BME280;22678;52.052;4.242;2023-01-19T11:49:49;100641.22;;;6.02;57.72
36692;BME280;22678;52.052;4.242;2023-01-19T11:52:43;100642.97;;;6.00;56.88
36692;BME280;22678;52.052;4.242;2023-01-19T11:57:44;100624.78;;;6.15;56.94
36692;BME280;22678;52.052;4.242;2023-01-19T12:00:22;100638.84;;;6.42;56.74
36692;BME280;22678;52.052;4.242;2023-01-19T12:02:49;100630.19;;;6.52;57.25
36692;BME280;22678;52.052;4.242;2023-01-19T12:05:18;100624.19;;;6.65;56.85
36692;BME280;22678;52.052;4.242;2023-01-19T12:07:46;100632.09;;;6.82;56.93
36692;BME280;22678;52.052;4.242;2023-01-19T12:10:28;100626.00;;;6.90;56.69
36692;BME280;22678;52.052;4.242;2023-01-19T12:12:55;100629.44;;;6.67;56.93
36692;BME280;22678;52.052;4.242;2023-01-19T12:15:42;100629.31;;;6.48;56.08
36692;BME280;22678;52.052;4.242;2023-01-19T12:18:20;100627.47;;;6.23;56.05
36692;BME280;22678;52.052;4.242;2023-01-19T12:20:49;100637.81;;;6.13;56.81
36692;BME280;22678;52.052;4.242;2023-01-19T12:23:34;100631.69;;;6.07;57.01
36692;BME280;22678;52.052;4.242;2023-01-19T12:26:25;100625.66;;;6.14;57.32
36692;BME280;22678;52.052;4.242;2023-01-19T12:28:54;100627.47;;;6.23;57.09
36692;BME280;22678;52.052;4.242;2023-01-19T12:31:23;100628.41;;;6.40;56.23
36692;BME280;22678;52.052;4.242;2023-01-19T12:33:49;100629.31;;;6.45;55.22
36692;BME280;22678;52.052;4.242;2023-01-19T12:41:37;100622.41;;;6.60;54.54
36692;BME280;22678;52.052;4.242;2023-01-19T12:46:52;100620.75;;;6.77;55.07
36692;BME280;22678;52.052;4.242;2023-01-19T12:49:39;100621.63;;;6.81;55.06
36692;BME280;22678;52.052;4.242;2023-01-19T12:52:34;100617.31;;;6.91;55.38
36692;BME280;22678;52.052;4.242;2023-01-19T13:05:53;100618.16;;;6.87;54.03
36692;BME280;22678;52.052;4.242;2023-01-19T13:08:21;100617.28;;;6.84;53.63
36692;BME280;22678;52.052;4.242;2023-01-19T13:18:44;100625.16;;;6.94;54.85
36692;BME280;22678;52.052;4.242;2023-01-19T13:21:13;100615.56;;;6.97;54.55
36692;BME280;22678;52.052;4.242;2023-01-19T13:23:56;100608.63;;;6.98;54.13
36692;BME280;22678;52.052;4.242;2023-01-19T13:26:23;100613.00;;;7.07;53.87
36692;BME280;22678;52.052;4.242;2023-01-19T13:28:53;100613.88;;;7.03;53.94
36692;BME280;22678;52.052;4.242;2023-01-19T13:31:19;100610.34;;;6.97;53.94
36692;BME280;22678;52.052;4.242;2023-01-19T13:33:47;100628.72;;;7.13;54.34
36692;BME280;22678;52.052;4.242;2023-01-19T13:36:33;100621.72;;;7.16;54.26
36692;BME280;22678;52.052;4.242;2023-01-19T13:39:02;100621.72;;;7.16;52.57
36692;BME280;22678;52.052;4.242;2023-01-19T13:41:30;100613.88;;;7.13;52.87
36692;BME280;22678;52.052;4.242;2023-01-19T13:44:13;100616.50;;;7.13;53.30
36692;BME280;22678;52.052;4.242;2023-01-19T13:46:42;100616.50;;;7.10;53.35
36692;BME280;22678;52.052;4.242;2023-01-19T13:49:23;100632.19;;;7.18;53.36
36692;BME280;22678;52.052;4.242;2023-01-19T13:54:29;100630.44;;;7.11;53.33